createdAt,value
2018-09-11T01:00:32.078Z,19.37
2018-09-11T01:01:32.020Z,19.43
2018-09-11T01:02:32.009Z,19.36
2018-09-11T01:03:32.053Z,19.33
2018-09-11T01:04:31.985Z,19.31
2018-09-11T01:05:31.975Z,19.26
2018-09-11T01:06:32.006Z,19.25
2018-09-11T01:07:31.953Z,19.25
2018-09-11T01:08:31.992Z,19.18
2018-09-11T01:09:31.930Z,19.19
2018-09-11T01:10:31.919Z,19.18
2018-09-11T01:11:31.910Z,19.14
2018-09-11T01:12:31.902Z,19.14
2018-09-11T01:13:31.884Z,19.00
2018-09-11T01:14:31.920Z,18.94
2018-09-11T01:15:31.868Z,18.98
2018-09-11T01:16:31.850Z,19.00
2018-09-11T01:17:31.837Z,18.95
2018-09-11T01:18:31.845Z,18.91
2018-09-11T01:19:31.866Z,18.98
2018-09-11T01:20:31.813Z,19.00
2018-09-11T01:21:31.797Z,19.02
2018-09-11T01:22:31.787Z,18.91
2018-09-11T01:23:31.774Z,18.92
2018-09-11T01:24:31.805Z,18.98
2018-09-11T01:25:31.756Z,18.91
2018-09-11T01:26:31.736Z,18.99
2018-09-11T01:27:31.726Z,18.98
2018-09-11T01:28:31.715Z,19.04
2018-09-11T01:29:31.754Z,19.02
2018-09-11T01:30:31.693Z,19.02
2018-09-11T01:31:31.682Z,19.04
2018-09-11T01:32:31.668Z,18.95
2018-09-11T01:33:31.661Z,19.04
2018-09-11T01:34:31.693Z,19.10
2018-09-11T01:35:31.641Z,19.11
2018-09-11T01:36:31.625Z,19.13
2018-09-11T01:37:31.613Z,19.08
2018-09-11T01:38:31.602Z,19.16
2018-09-11T01:39:31.635Z,19.08
2018-09-11T01:40:31.594Z,19.13
2018-09-11T01:41:31.572Z,19.19
2018-09-11T01:42:31.558Z,19.16
2018-09-11T01:43:31.579Z,19.21
2018-09-11T01:44:31.579Z,19.14
2018-09-11T01:45:31.524Z,19.06
2018-09-11T01:46:31.512Z,19.07
2018-09-11T01:47:31.502Z,19.07
2018-09-11T01:48:31.494Z,19.08
2018-09-11T01:49:31.659Z,19.13
2018-09-11T01:50:31.470Z,18.99
2018-09-11T01:51:31.456Z,18.99
2018-09-11T01:52:31.445Z,18.94
2018-09-11T01:53:31.434Z,18.88
2018-09-11T01:54:31.472Z,18.82
2018-09-11T01:55:31.412Z,18.92
2018-09-11T01:56:31.400Z,18.91
2018-09-11T01:57:31.389Z,18.87
2018-09-11T01:58:31.379Z,18.90
2018-09-11T01:59:31.414Z,18.88
2018-09-11T02:00:31.379Z,18.91
2018-09-11T02:01:31.344Z,18.85
2018-09-11T02:02:31.332Z,18.87
2018-09-11T02:03:31.322Z,18.76
2018-09-11T02:04:31.357Z,18.84
2018-09-11T02:05:31.298Z,18.76
2018-09-11T02:06:31.289Z,18.72
2018-09-11T02:07:31.276Z,18.70
2018-09-11T02:08:31.266Z,18.67
2018-09-11T02:09:31.297Z,18.70
2018-09-11T02:10:31.241Z,18.70
2018-09-11T02:11:31.229Z,18.69
2018-09-11T02:12:31.219Z,18.66
2018-09-11T02:13:31.208Z,18.78
2018-09-11T02:14:31.240Z,18.73
2018-09-11T02:15:31.186Z,18.72
2018-09-11T02:16:31.182Z,18.81
2018-09-11T02:17:31.164Z,18.78
2018-09-11T02:18:31.150Z,18.76
2018-09-11T02:19:31.185Z,18.76
2018-09-11T02:20:31.128Z,18.73
2018-09-11T02:21:31.131Z,18.78
2018-09-11T02:22:31.106Z,18.75
2018-09-11T02:23:31.095Z,18.81
2018-09-11T02:24:31.142Z,18.67
2018-09-11T02:25:31.071Z,18.73
2018-09-11T02:26:31.060Z,18.70
2018-09-11T02:27:31.057Z,18.72
2018-09-11T02:28:31.037Z,18.65
2018-09-11T02:29:31.072Z,18.67
2018-09-11T02:30:31.020Z,18.75
2018-09-11T02:31:31.015Z,18.66
2018-09-11T02:32:30.993Z,18.63
2018-09-11T02:33:30.987Z,18.70
2018-09-11T02:34:31.016Z,18.62
2018-09-11T02:35:30.959Z,18.65
2018-09-11T02:36:30.950Z,18.65
2018-09-11T02:37:30.939Z,18.62
2018-09-11T02:38:30.928Z,18.58
2018-09-11T02:39:30.960Z,18.52
2018-09-11T02:40:30.902Z,18.52
2018-09-11T02:41:30.894Z,18.51
2018-09-11T02:42:30.883Z,18.48
2018-09-11T02:43:30.870Z,18.47
2018-09-11T02:44:30.902Z,18.48
2018-09-11T02:45:30.847Z,18.48
2018-09-11T02:46:30.834Z,18.42
2018-09-11T02:47:30.826Z,18.52
2018-09-11T02:48:30.815Z,18.54
2018-09-11T02:49:30.849Z,18.47
2018-09-11T02:50:30.789Z,18.52
2018-09-11T02:51:30.791Z,18.48
2018-09-11T02:52:30.766Z,18.51
2018-09-11T02:53:30.764Z,18.51
2018-09-11T02:54:30.789Z,18.45
2018-09-11T02:55:30.737Z,18.45
2018-09-11T02:56:30.721Z,18.47
2018-09-11T02:57:30.713Z,18.44
2018-09-11T02:58:30.699Z,18.54
2018-09-11T02:59:30.732Z,18.39
2018-09-11T03:00:30.680Z,18.50
2018-09-11T03:01:30.678Z,18.44
2018-09-11T03:02:30.654Z,18.44
2018-09-11T03:03:30.645Z,18.44
2018-09-11T03:04:30.677Z,18.48
2018-09-11T03:05:30.620Z,18.45
2018-09-11T03:06:30.607Z,18.48
2018-09-11T03:07:30.597Z,18.42
2018-09-11T03:08:30.591Z,18.44
2018-09-11T03:09:30.621Z,18.44
2018-09-11T03:10:30.562Z,18.41
2018-09-11T03:11:30.554Z,18.42
2018-09-11T03:12:30.540Z,18.30
2018-09-11T03:13:30.554Z,18.30
2018-09-11T03:14:30.563Z,18.32
2018-09-11T03:15:30.506Z,18.18
2018-09-11T03:16:30.498Z,18.14
2018-09-11T03:17:30.484Z,18.11
2018-09-11T03:18:30.474Z,18.15
2018-09-11T03:19:30.510Z,18.12
2018-09-11T03:20:30.452Z,18.05
2018-09-11T03:21:30.438Z,17.97
2018-09-11T03:22:30.428Z,17.90
2018-09-11T03:23:30.417Z,17.78
2018-09-11T03:24:30.454Z,17.78
2018-09-11T03:25:30.393Z,17.77
2018-09-11T03:26:30.387Z,17.70
2018-09-11T03:27:30.372Z,17.62
2018-09-11T03:28:30.360Z,17.66
2018-09-11T03:29:30.348Z,17.56
2018-09-11T03:30:30.383Z,17.51
2018-09-11T03:31:30.326Z,17.56
2018-09-11T03:32:30.318Z,17.48
2018-09-11T03:33:30.302Z,17.44
2018-09-11T03:34:30.292Z,17.46
2018-09-11T03:35:30.327Z,17.38
2018-09-11T03:36:30.270Z,17.36
2018-09-11T03:37:30.256Z,17.28
2018-09-11T03:38:30.246Z,17.28
2018-09-11T03:39:30.234Z,17.31
2018-09-11T03:40:30.273Z,17.31
2018-09-11T03:41:30.217Z,17.25
2018-09-11T03:42:30.202Z,17.22
2018-09-11T03:43:30.191Z,17.25
2018-09-11T03:44:30.181Z,17.23
2018-09-11T03:45:30.215Z,17.25
2018-09-11T03:46:30.176Z,17.25
2018-09-11T03:47:30.150Z,17.26
2018-09-11T03:48:30.134Z,17.19
2018-09-11T03:49:30.122Z,17.25
2018-09-11T03:50:30.173Z,17.15
2018-09-11T03:51:30.103Z,17.19
2018-09-11T03:52:30.090Z,17.25
2018-09-11T03:53:30.078Z,17.21
2018-09-11T03:54:30.064Z,17.22
2018-09-11T03:55:30.105Z,17.15
2018-09-11T03:56:30.043Z,17.19
2018-09-11T03:57:30.034Z,17.19
2018-09-11T03:58:30.025Z,17.12
2018-09-11T03:59:30.015Z,17.22
2018-09-11T04:00:30.044Z,17.03
2018-09-11T04:01:29.989Z,17.07
2018-09-11T04:02:29.977Z,17.06
2018-09-11T04:03:29.961Z,17.06
2018-09-11T04:04:29.953Z,17.06
2018-09-11T04:05:30.069Z,17.06
2018-09-11T04:06:29.927Z,17.12
2018-09-11T04:07:29.921Z,17.08
2018-09-11T04:08:29.903Z,17.07
2018-09-11T04:09:29.894Z,17.14
2018-09-11T04:10:29.927Z,17.14
2018-09-11T04:11:29.871Z,17.11
2018-09-11T04:12:29.860Z,17.12
2018-09-11T04:13:29.847Z,17.03
2018-09-11T04:14:29.835Z,17.07
2018-09-11T04:15:29.872Z,17.06
2018-09-11T04:16:29.811Z,17.07
2018-09-11T04:17:29.803Z,17.01
2018-09-11T04:18:29.793Z,17.14
2018-09-11T04:19:29.778Z,17.14
2018-09-11T04:20:29.813Z,17.14
2018-09-11T04:21:29.754Z,17.06
2018-09-11T04:22:29.742Z,17.07
2018-09-11T04:23:29.743Z,17.06
2018-09-11T04:24:29.721Z,17.07
2018-09-11T04:25:29.800Z,17.07
2018-09-11T04:26:29.700Z,17.04
2018-09-11T04:27:29.694Z,16.98
2018-09-11T04:28:29.676Z,16.98
2018-09-11T04:29:29.669Z,16.94
2018-09-11T04:30:29.697Z,17.00
2018-09-11T04:31:29.642Z,17.01
2018-09-11T04:32:29.629Z,16.97
2018-09-11T04:33:29.622Z,16.91
2018-09-11T04:34:29.607Z,16.89
2018-09-11T04:35:29.645Z,16.83
2018-09-11T04:36:29.654Z,16.81
2018-09-11T04:37:29.574Z,16.85
2018-09-11T04:38:29.560Z,16.76
2018-09-11T04:39:29.549Z,16.73
2018-09-11T04:40:29.584Z,16.78
2018-09-11T04:41:29.526Z,16.73
2018-09-11T04:42:29.523Z,16.73
2018-09-11T04:43:29.503Z,16.71
2018-09-11T04:44:29.492Z,16.81
2018-09-11T04:45:29.529Z,16.83
2018-09-11T04:46:29.470Z,16.86
2018-09-11T04:47:29.459Z,16.85
2018-09-11T04:48:29.448Z,16.93
2018-09-11T04:49:29.440Z,16.91
2018-09-11T04:50:29.424Z,16.88
2018-09-11T04:51:29.457Z,17.01
2018-09-11T04:52:29.401Z,17.00
2018-09-11T04:53:29.397Z,17.08
2018-09-11T04:54:29.380Z,17.04
2018-09-11T04:55:29.369Z,17.06
2018-09-11T04:56:29.402Z,17.06
2018-09-11T04:57:29.350Z,17.04
2018-09-11T04:58:29.351Z,17.00
2018-09-11T04:59:29.325Z,16.94
2018-09-11T05:00:29.309Z,16.85
2018-09-11T05:01:29.352Z,16.82
2018-09-11T05:02:29.289Z,16.79
2018-09-11T05:03:29.280Z,16.81
2018-09-11T05:04:29.269Z,16.83
2018-09-11T05:05:29.292Z,16.79
2018-09-11T05:06:29.294Z,16.70
2018-09-11T05:07:29.239Z,16.70
2018-09-11T05:08:29.221Z,16.75
2018-09-11T05:09:29.216Z,16.71
2018-09-11T05:10:29.203Z,16.75
2018-09-11T05:11:29.238Z,16.81
2018-09-11T05:12:29.177Z,16.75
2018-09-11T05:13:29.167Z,16.66
2018-09-11T05:14:29.157Z,16.73
2018-09-11T05:15:29.146Z,16.71
2018-09-11T05:16:29.177Z,16.73
2018-09-11T05:17:29.122Z,16.76
2018-09-11T05:18:29.110Z,16.64
2018-09-11T05:19:29.100Z,16.68
2018-09-11T05:20:29.095Z,16.61
2018-09-11T05:21:29.128Z,16.63
2018-09-11T05:22:29.065Z,16.75
2018-09-11T05:23:29.055Z,16.58
2018-09-11T05:24:29.047Z,16.50
2018-09-11T05:25:29.033Z,16.49
2018-09-11T05:26:29.084Z,16.58
2018-09-11T05:27:29.146Z,16.53
2018-09-11T05:28:29.001Z,16.56
2018-09-11T05:29:28.989Z,16.56
2018-09-11T05:30:28.979Z,16.58
2018-09-11T05:31:29.015Z,16.57
2018-09-11T05:32:28.964Z,16.42
2018-09-11T05:33:28.944Z,16.60
2018-09-11T05:34:28.931Z,16.41
2018-09-11T05:35:28.921Z,16.45
2018-09-11T05:36:28.962Z,16.46
2018-09-11T05:37:28.902Z,16.49
2018-09-11T05:38:28.888Z,16.60
2018-09-11T05:39:28.875Z,16.56
2018-09-11T05:40:28.866Z,16.61
2018-09-11T05:41:28.907Z,16.58
2018-09-11T05:42:28.844Z,16.52
2018-09-11T05:43:28.835Z,16.66
2018-09-11T05:44:28.821Z,16.56
2018-09-11T05:45:28.809Z,16.56
2018-09-11T05:46:28.798Z,16.58
2018-09-11T05:47:28.834Z,16.63
2018-09-11T05:48:28.777Z,16.61
2018-09-11T05:49:28.767Z,16.78
2018-09-11T05:50:28.754Z,16.67
2018-09-11T05:51:28.744Z,16.85
2018-09-11T05:52:28.775Z,16.81
2018-09-11T05:53:28.720Z,16.88
2018-09-11T05:54:28.713Z,16.88
2018-09-11T05:55:28.705Z,17.00
2018-09-11T05:56:28.690Z,17.00
2018-09-11T05:57:28.723Z,17.12
2018-09-11T05:58:28.724Z,17.08
2018-09-11T05:59:28.656Z,17.06
2018-09-11T06:00:28.640Z,17.08
2018-09-11T06:01:28.630Z,16.96
2018-09-11T06:02:28.668Z,17.06
2018-09-11T06:03:28.613Z,17.11
2018-09-11T06:04:28.603Z,17.15
2018-09-11T06:05:28.615Z,17.23
2018-09-11T06:06:28.573Z,17.26
2018-09-11T06:07:28.611Z,17.22
2018-09-11T06:08:28.553Z,17.30
2018-09-11T06:09:28.540Z,17.36
2018-09-11T06:10:28.531Z,17.30
2018-09-11T06:11:28.532Z,17.33
2018-09-11T06:12:28.553Z,17.31
2018-09-11T06:13:28.494Z,17.28
2018-09-11T06:14:28.485Z,17.30
2018-09-11T06:15:28.474Z,17.33
2018-09-11T06:16:28.464Z,17.33
2018-09-11T06:17:28.501Z,17.30
2018-09-11T06:18:28.437Z,17.44
2018-09-11T06:19:28.427Z,17.49
2018-09-11T06:20:28.418Z,17.43
2018-09-11T06:21:28.404Z,17.56
2018-09-11T06:22:28.441Z,17.52
2018-09-11T06:23:28.387Z,17.52
2018-09-11T06:24:28.370Z,17.59
2018-09-11T06:25:28.361Z,17.56
2018-09-11T06:26:28.348Z,17.70
2018-09-11T06:27:30.212Z,17.66
2018-09-11T06:28:28.333Z,17.56
2018-09-11T06:29:28.315Z,17.56
2018-09-11T06:30:28.304Z,17.62
2018-09-11T06:31:28.337Z,17.59
2018-09-11T06:32:28.288Z,17.63
2018-09-11T06:33:28.312Z,17.75
2018-09-11T06:34:28.261Z,17.75
2018-09-11T06:35:28.301Z,17.74
2018-09-11T06:36:28.235Z,17.74
2018-09-11T06:37:28.222Z,17.84
2018-09-11T06:38:28.269Z,17.89
2018-09-11T06:39:28.206Z,17.86
2018-09-11T06:40:28.187Z,17.99
2018-09-11T06:41:28.176Z,17.93
2018-09-11T06:42:28.170Z,17.99
2018-09-11T06:43:28.153Z,18.03
2018-09-11T06:44:28.187Z,18.03
2018-09-11T06:45:28.130Z,18.14
2018-09-11T06:46:28.119Z,18.10
2018-09-11T06:47:28.111Z,18.18
2018-09-11T06:48:28.099Z,18.15
2018-09-11T06:49:28.133Z,18.27
2018-09-11T06:50:28.074Z,18.33
2018-09-11T06:51:28.064Z,18.27
2018-09-11T06:52:28.053Z,18.42
2018-09-11T06:53:28.040Z,18.44
2018-09-11T06:54:28.075Z,18.47
2018-09-11T06:55:28.017Z,18.37
2018-09-11T06:56:28.007Z,18.42
2018-09-11T06:57:27.996Z,18.47
2018-09-11T06:58:27.984Z,18.51
2018-09-11T06:59:28.027Z,18.52
2018-09-11T07:00:28.005Z,18.58
2018-09-11T07:01:27.949Z,18.63
2018-09-11T07:02:27.962Z,18.67
2018-09-11T07:03:27.927Z,18.70
2018-09-11T07:04:27.965Z,18.70
2018-09-11T07:05:27.924Z,18.73
2018-09-11T07:06:27.914Z,18.82
2018-09-11T07:07:27.884Z,18.78
2018-09-11T07:08:27.895Z,18.88
2018-09-11T07:09:27.904Z,19.16
2018-09-11T07:10:27.847Z,19.26
2018-09-11T07:11:27.837Z,19.22
2018-09-11T07:12:27.824Z,19.25
2018-09-11T07:13:27.814Z,19.19
2018-09-11T07:14:27.891Z,19.21
2018-09-11T07:15:27.788Z,19.19
2018-09-11T07:16:27.786Z,19.23
2018-09-11T07:17:27.768Z,19.10
2018-09-11T07:18:27.756Z,19.19
2018-09-11T07:19:27.873Z,19.23
2018-09-11T07:20:27.910Z,19.19
2018-09-11T07:21:27.722Z,19.26
2018-09-11T07:22:27.711Z,19.19
2018-09-11T07:23:27.699Z,19.13
2018-09-11T07:24:27.736Z,19.16
2018-09-11T07:25:27.680Z,19.19
2018-09-11T07:26:27.666Z,19.14
2018-09-11T07:27:27.700Z,19.14
2018-09-11T07:28:27.650Z,19.23
2018-09-11T07:29:27.631Z,19.25
2018-09-11T07:30:27.741Z,19.21
2018-09-11T07:31:27.699Z,19.32
2018-09-11T07:32:27.627Z,19.37
2018-09-11T07:33:27.593Z,19.51
2018-09-11T07:34:27.597Z,19.59
2018-09-11T07:35:27.610Z,19.66
2018-09-11T07:36:27.596Z,19.61
2018-09-11T07:37:27.546Z,19.65
2018-09-11T07:38:27.532Z,19.54
2018-09-11T07:39:27.520Z,19.50
2018-09-11T07:40:27.560Z,19.55
2018-09-11T07:41:27.499Z,19.62
2018-09-11T07:42:27.488Z,19.56
2018-09-11T07:43:27.475Z,19.59
2018-09-11T07:44:27.464Z,19.59
2018-09-11T07:45:27.513Z,19.73
2018-09-11T07:46:27.443Z,19.69
2018-09-11T07:47:27.429Z,19.59
2018-09-11T07:48:27.417Z,19.58
2018-09-11T07:49:27.407Z,19.62
2018-09-11T07:50:27.451Z,19.63
2018-09-11T07:51:27.386Z,19.65
2018-09-11T07:52:27.386Z,19.81
2018-09-11T07:53:27.361Z,20.14
2018-09-11T07:54:27.349Z,20.57
2018-09-11T07:55:27.341Z,20.95
2018-09-11T07:56:27.373Z,21.13
2018-09-11T07:57:27.326Z,21.12
2018-09-11T07:58:27.308Z,20.99
2018-09-11T07:59:27.297Z,21.21
2018-09-11T08:00:27.283Z,21.49
2018-09-11T08:01:27.316Z,21.52
2018-09-11T08:02:27.268Z,21.84
2018-09-11T08:03:27.259Z,22.05
2018-09-11T08:04:27.245Z,22.28
2018-09-11T08:05:27.228Z,22.80
2018-09-11T08:06:27.273Z,22.79
2018-09-11T08:07:27.204Z,22.83
2018-09-11T08:08:27.194Z,22.52
2018-09-11T08:09:27.235Z,22.76
2018-09-11T08:10:27.170Z,23.13
2018-09-11T08:11:27.205Z,23.27
2018-09-11T08:12:27.150Z,22.65
2018-09-11T08:13:27.138Z,22.49
2018-09-11T08:14:27.127Z,22.46
2018-09-11T08:15:27.116Z,22.80
2018-09-11T08:16:27.161Z,22.76
2018-09-11T08:17:27.092Z,22.55
2018-09-11T08:18:27.081Z,22.24
2018-09-11T08:19:27.073Z,21.86
2018-09-11T08:20:27.058Z,21.69
2018-09-11T08:21:27.090Z,21.62
2018-09-11T08:22:27.036Z,21.61
2018-09-11T08:23:27.025Z,21.64
2018-09-11T08:24:27.018Z,21.53
2018-09-11T08:25:27.002Z,21.56
2018-09-11T08:26:27.036Z,21.59
2018-09-11T08:27:26.978Z,21.62
2018-09-11T08:28:26.976Z,21.79
2018-09-11T08:29:27.022Z,21.71
2018-09-11T08:30:26.951Z,21.86
2018-09-11T08:31:26.980Z,21.98
2018-09-11T08:32:26.920Z,21.92
2018-09-11T08:33:26.907Z,22.00
2018-09-11T08:34:26.896Z,22.00
2018-09-11T08:35:26.886Z,22.15
2018-09-11T08:36:26.924Z,22.21
2018-09-11T08:37:26.867Z,22.14
2018-09-11T08:38:26.903Z,22.15
2018-09-11T08:39:26.843Z,22.22
2018-09-11T08:40:26.831Z,22.25
2018-09-11T08:41:26.864Z,22.33
2018-09-11T08:42:26.805Z,22.40
2018-09-11T08:43:26.798Z,22.36
2018-09-11T08:44:26.790Z,22.30
2018-09-11T08:45:26.773Z,22.43
2018-09-11T08:46:26.806Z,22.51
2018-09-11T08:47:26.749Z,22.65
2018-09-11T08:48:26.742Z,22.76
2018-09-11T08:49:26.730Z,22.64
2018-09-11T08:50:26.736Z,22.57
2018-09-11T08:51:26.749Z,22.57
2018-09-11T08:52:26.747Z,22.54
2018-09-11T08:53:26.680Z,22.65
2018-09-11T08:54:26.672Z,22.60
2018-09-11T08:55:26.658Z,22.68
2018-09-11T08:56:26.738Z,22.61
2018-09-11T08:57:26.637Z,22.67
2018-09-11T08:58:26.668Z,22.73
2018-09-11T08:59:26.632Z,22.86
2018-09-11T09:00:26.604Z,22.90
2018-09-11T09:01:26.636Z,22.98
2018-09-11T09:02:26.582Z,23.05
2018-09-11T09:03:26.570Z,23.15
2018-09-11T09:04:26.557Z,23.16
2018-09-11T09:05:26.546Z,23.27
2018-09-11T09:06:26.589Z,23.32
2018-09-11T09:07:26.525Z,23.33
2018-09-11T09:08:26.514Z,23.36
2018-09-11T09:09:26.506Z,23.27
2018-09-11T09:10:26.490Z,23.27
2018-09-11T09:11:26.479Z,23.32
2018-09-11T09:12:26.513Z,23.28
2018-09-11T09:13:26.472Z,23.35
2018-09-11T09:14:26.447Z,23.31
2018-09-11T09:15:26.450Z,23.42
2018-09-11T09:16:26.424Z,23.32
2018-09-11T09:17:26.462Z,23.39
2018-09-11T09:18:26.402Z,23.46
2018-09-11T09:19:26.392Z,23.35
2018-09-11T09:20:26.380Z,23.38
2018-09-11T09:21:26.367Z,23.40
2018-09-11T09:22:26.408Z,23.51
2018-09-11T09:23:26.347Z,23.60
2018-09-11T09:24:26.338Z,23.61
2018-09-11T09:25:26.323Z,23.70
2018-09-11T09:26:26.312Z,23.84
2018-09-11T09:27:26.379Z,24.00
2018-09-11T09:28:26.288Z,24.18
2018-09-11T09:29:26.278Z,24.50
2018-09-11T09:30:26.267Z,24.77
2018-09-11T09:31:26.255Z,25.05
2018-09-11T09:32:26.291Z,25.36
2018-09-11T09:33:26.233Z,25.32
2018-09-11T09:34:26.225Z,25.25
2018-09-11T09:35:26.232Z,25.23
2018-09-11T09:36:26.206Z,25.24
2018-09-11T09:37:26.238Z,25.09
2018-09-11T09:38:26.176Z,24.91
2018-09-11T09:39:26.166Z,24.68
2018-09-11T09:40:26.164Z,24.57
2018-09-11T09:41:26.144Z,24.53
2018-09-11T09:42:26.180Z,24.60
2018-09-11T09:43:26.132Z,24.77
2018-09-11T09:44:26.109Z,24.90
2018-09-11T09:45:26.101Z,24.81
2018-09-11T09:46:26.091Z,24.58
2018-09-11T09:47:26.120Z,24.45
2018-09-11T09:48:26.064Z,24.45
2018-09-11T09:49:26.054Z,24.45
2018-09-11T09:50:26.066Z,24.50
2018-09-11T09:51:26.043Z,24.45
2018-09-11T09:52:26.065Z,24.47
2018-09-11T09:53:26.008Z,24.52
2018-09-11T09:54:25.999Z,24.50
2018-09-11T09:55:25.990Z,24.45
2018-09-11T09:56:26.022Z,24.49
2018-09-11T09:57:26.014Z,24.49
2018-09-11T09:58:25.953Z,24.46
2018-09-11T09:59:25.941Z,24.58
2018-09-11T10:00:25.935Z,24.46
2018-09-11T10:01:25.920Z,24.49
2018-09-11T10:02:25.960Z,24.52
2018-09-11T10:03:25.900Z,24.49
2018-09-11T10:04:25.886Z,24.53
2018-09-11T10:05:25.878Z,24.60
2018-09-11T10:06:25.865Z,24.67
2018-09-11T10:07:25.899Z,24.73
2018-09-11T10:08:25.846Z,24.81
2018-09-11T10:09:25.833Z,24.76
2018-09-11T10:10:25.825Z,24.73
2018-09-11T10:11:25.812Z,24.68
2018-09-11T10:12:25.842Z,24.67
2018-09-11T10:13:25.787Z,24.61
2018-09-11T10:14:25.782Z,24.65
2018-09-11T10:15:25.766Z,24.65
2018-09-11T10:16:25.755Z,24.62
2018-09-11T10:17:25.843Z,24.83
2018-09-11T10:18:25.732Z,24.99
2018-09-11T10:19:25.740Z,24.90
2018-09-11T10:20:25.713Z,24.90
2018-09-11T10:21:25.699Z,24.96
2018-09-11T10:22:25.739Z,24.95
2018-09-11T10:23:25.676Z,24.95
2018-09-11T10:24:25.666Z,24.95
2018-09-11T10:25:25.679Z,25.00
2018-09-11T10:26:25.641Z,25.09
2018-09-11T10:27:25.688Z,25.05
2018-09-11T10:28:25.619Z,25.06
2018-09-11T10:29:25.610Z,25.17
2018-09-11T10:30:25.599Z,25.18
2018-09-11T10:31:25.586Z,25.18
2018-09-11T10:32:25.619Z,25.21
2018-09-11T10:33:25.564Z,25.24
2018-09-11T10:34:25.564Z,25.32
2018-09-11T10:35:25.544Z,25.35
2018-09-11T10:36:25.530Z,25.38
2018-09-11T10:37:25.566Z,25.45
2018-09-11T10:38:25.507Z,25.47
2018-09-11T10:39:25.525Z,25.43
2018-09-11T10:40:25.485Z,25.39
2018-09-11T10:41:25.481Z,25.39
2018-09-11T10:42:25.509Z,25.55
2018-09-11T10:43:25.451Z,25.65
2018-09-11T10:44:25.438Z,25.76
2018-09-11T10:45:25.428Z,25.98
2018-09-11T10:46:25.423Z,26.15
2018-09-11T10:47:25.453Z,26.13
2018-09-11T10:48:25.398Z,26.51
2018-09-11T10:49:25.385Z,26.52
2018-09-11T10:50:25.376Z,26.66
2018-09-11T10:51:25.363Z,26.80
2018-09-11T10:52:25.396Z,26.80
2018-09-11T10:53:25.340Z,26.55
2018-09-11T10:54:25.331Z,26.43
2018-09-11T10:55:25.318Z,26.47
2018-09-11T10:56:25.309Z,26.51
2018-09-11T10:57:25.345Z,26.40
2018-09-11T10:58:25.326Z,26.48
2018-09-11T10:59:25.275Z,26.52
2018-09-11T11:00:25.267Z,26.45
2018-09-11T11:01:25.256Z,26.37
2018-09-11T11:02:25.303Z,26.36
2018-09-11T11:03:25.233Z,26.23
2018-09-11T11:04:25.221Z,26.26
2018-09-11T11:05:25.212Z,26.15
2018-09-11T11:06:25.196Z,26.23
2018-09-11T11:07:25.184Z,26.10
2018-09-11T11:08:25.236Z,26.13
2018-09-11T11:09:25.165Z,26.06
2018-09-11T11:10:25.152Z,26.10
2018-09-11T11:11:25.141Z,26.06
2018-09-11T11:12:25.130Z,25.97
2018-09-11T11:13:25.167Z,25.98
2018-09-11T11:14:25.132Z,25.97
2018-09-11T11:15:25.098Z,25.95
2018-09-11T11:16:25.084Z,25.92
2018-09-11T11:17:25.078Z,25.98
2018-09-11T11:18:25.108Z,25.97
2018-09-11T11:19:25.054Z,26.01
2018-09-11T11:20:25.041Z,26.01
2018-09-11T11:21:25.031Z,26.13
2018-09-11T11:22:25.023Z,26.13
2018-09-11T11:23:25.053Z,26.15
2018-09-11T11:24:25.011Z,26.15
2018-09-11T11:25:24.988Z,26.17
2018-09-11T11:26:25.051Z,26.15
2018-09-11T11:27:24.967Z,26.06
2018-09-11T11:28:25.000Z,26.15
2018-09-11T11:29:24.941Z,26.23
2018-09-11T11:30:24.931Z,26.23
2018-09-11T11:31:24.923Z,26.25
2018-09-11T11:32:24.912Z,26.25
2018-09-11T11:33:24.946Z,26.10
2018-09-11T11:34:24.886Z,26.05
2018-09-11T11:35:24.875Z,26.07
2018-09-11T11:36:25.057Z,26.07
2018-09-11T11:37:25.026Z,26.09
2018-09-11T11:38:24.907Z,26.17
2018-09-11T11:39:24.831Z,26.20
2018-09-11T11:40:24.819Z,26.25
2018-09-11T11:41:24.812Z,26.36
2018-09-11T11:42:24.868Z,26.20
2018-09-11T11:43:24.831Z,26.20
2018-09-11T11:44:24.781Z,26.35
2018-09-11T11:45:24.766Z,26.51
2018-09-11T11:46:24.754Z,26.48
2018-09-11T11:47:24.741Z,26.40
2018-09-11T11:48:24.824Z,26.44
2018-09-11T11:49:24.724Z,26.43
2018-09-11T11:50:24.708Z,26.48
2018-09-11T11:51:24.730Z,26.48
2018-09-11T11:52:24.688Z,26.58
2018-09-11T11:53:24.719Z,26.48
2018-09-11T11:54:24.712Z,26.40
2018-09-11T11:55:24.721Z,26.43
2018-09-11T11:56:24.644Z,26.51
2018-09-11T11:57:24.631Z,26.52
2018-09-11T11:58:24.667Z,26.58
2018-09-11T11:59:24.610Z,27.04
2018-09-11T12:00:24.596Z,27.79
2018-09-11T12:01:24.603Z,28.22
2018-09-11T12:02:24.579Z,28.41
2018-09-11T12:03:24.611Z,28.76
2018-09-11T12:04:24.553Z,29.33
2018-09-11T12:05:24.541Z,29.68
2018-09-11T12:06:24.531Z,30.24
2018-09-11T12:07:24.519Z,30.19
2018-09-11T12:08:24.556Z,30.67
2018-09-11T12:09:24.497Z,30.79
2018-09-11T12:10:24.490Z,30.77
2018-09-11T12:11:24.478Z,31.25
2018-09-11T12:12:24.464Z,31.63
2018-09-11T12:13:24.502Z,31.99
2018-09-11T12:14:24.461Z,32.29
2018-09-11T12:15:24.432Z,32.62
2018-09-11T12:16:24.422Z,32.67
2018-09-11T12:17:24.411Z,32.81
2018-09-11T12:18:24.446Z,32.63
2018-09-11T12:19:24.395Z,32.92
2018-09-11T12:20:24.385Z,32.25
2018-09-11T12:21:24.367Z,31.92
2018-09-11T12:22:24.364Z,31.92
2018-09-11T12:23:24.395Z,32.00
2018-09-11T12:24:24.337Z,31.96
2018-09-11T12:25:24.390Z,32.03
2018-09-11T12:26:24.404Z,31.96
2018-09-11T12:27:24.309Z,32.25
2018-09-11T12:28:24.345Z,32.11
2018-09-11T12:29:24.284Z,32.66
2018-09-11T12:30:24.276Z,33.14
2018-09-11T12:31:24.267Z,33.50
2018-09-11T12:32:24.251Z,33.54
2018-09-11T12:33:24.292Z,33.68
2018-09-11T12:34:24.231Z,33.84
2018-09-11T12:35:24.222Z,34.05
2018-09-11T12:36:24.213Z,33.81
2018-09-11T12:37:24.202Z,33.87
2018-09-11T12:38:24.252Z,33.87
2018-09-11T12:39:24.185Z,33.98
2018-09-11T12:40:24.168Z,34.37
2018-09-11T12:41:24.159Z,34.35
2018-09-11T12:42:24.149Z,33.78
2018-09-11T12:43:24.137Z,33.09
2018-09-11T12:44:24.173Z,32.38
2018-09-11T12:45:24.120Z,31.95
2018-09-11T12:46:24.472Z,31.70
2018-09-11T12:47:24.368Z,31.50
2018-09-11T12:48:24.241Z,31.17
2018-09-11T12:49:24.125Z,30.95
2018-09-11T12:50:24.063Z,30.72
2018-09-11T12:51:24.052Z,30.32
2018-09-11T12:52:24.073Z,30.19
2018-09-11T12:53:24.035Z,29.80
2018-09-11T12:54:24.068Z,29.63
2018-09-11T12:55:24.010Z,29.34
2018-09-11T12:56:23.998Z,29.23
2018-09-11T12:57:23.989Z,29.05
2018-09-11T12:58:23.979Z,29.02
2018-09-11T12:59:24.011Z,28.95
2018-09-11T13:00:23.957Z,28.90
2018-09-11T13:01:23.943Z,28.81
2018-09-11T13:02:24.000Z,28.73
2018-09-11T13:03:23.923Z,28.66
2018-09-11T13:04:23.958Z,28.49
2018-09-11T13:05:23.900Z,28.39
2018-09-11T13:06:23.893Z,28.25
2018-09-11T13:07:23.882Z,28.29
2018-09-11T13:08:23.867Z,28.25
2018-09-11T13:09:23.959Z,28.21
2018-09-11T13:10:23.853Z,28.14
2018-09-11T13:11:23.839Z,28.17
2018-09-11T13:12:23.826Z,28.07
2018-09-11T13:13:23.822Z,28.17
2018-09-11T13:14:23.847Z,28.15
2018-09-11T13:15:23.791Z,28.15
2018-09-11T13:16:23.784Z,28.17
2018-09-11T13:17:23.770Z,28.17
2018-09-11T13:18:23.767Z,28.15
2018-09-11T13:19:23.794Z,28.14
2018-09-11T13:20:23.738Z,28.06
2018-09-11T13:21:23.727Z,28.06
2018-09-11T13:22:23.714Z,27.97
2018-09-11T13:23:23.703Z,27.94
2018-09-11T13:24:23.741Z,27.94
2018-09-11T13:25:23.787Z,27.97
2018-09-11T13:26:23.670Z,27.97
2018-09-11T13:27:23.661Z,27.92
2018-09-11T13:28:23.648Z,27.96
2018-09-11T13:29:23.685Z,27.85
2018-09-11T13:30:23.628Z,27.77
2018-09-11T13:31:23.616Z,27.79
2018-09-11T13:32:23.607Z,27.77
2018-09-11T13:33:23.592Z,27.75
2018-09-11T13:34:23.628Z,27.85
2018-09-11T13:35:23.582Z,27.87
2018-09-11T13:36:23.576Z,27.87
2018-09-11T13:37:23.549Z,27.92
2018-09-11T13:38:23.566Z,27.94
2018-09-11T13:39:23.576Z,27.82
2018-09-11T13:40:23.515Z,27.88
2018-09-11T13:41:23.515Z,27.85
2018-09-11T13:42:23.499Z,27.85
2018-09-11T13:43:23.493Z,27.81
2018-09-11T13:44:23.530Z,27.77
2018-09-11T13:45:23.573Z,27.74
2018-09-11T13:46:23.464Z,27.74
2018-09-11T13:47:23.597Z,27.81
2018-09-11T13:48:23.465Z,27.79
2018-09-11T13:49:23.468Z,27.82
2018-09-11T13:50:23.421Z,27.85
2018-09-11T13:51:23.393Z,27.94
2018-09-11T13:52:23.383Z,27.93